Time;durP1;ratioP1;P1;durP2;ratioP2;P2;SDS_P1;SDS_P2;PMS_P1;PMS_P2;Temp;Humidity;BMP_temperature;BMP_pressure;BME280_temperature;BME280_humidity;BME280_pressure;Samples;Min_cycle;Max_cycle;Signal;HPM_P1;HPM_P2
2022/01/30 00:06:58;;;;;;;16.80;2.17;;;5.80;99.90;;;;;;4908749;29;20115;-85
2022/01/30 00:23:33;;;;;;;8.13;2.77;;;5.60;99.90;;;;;;4868641;29;21021;-81
2022/01/30 00:26:03;;;;;;;4.63;1.23;;;5.60;99.90;;;;;;4876958;29;20057;-81
2022/01/30 00:28:37;;;;;;;11.65;1.83;;;5.60;99.90;;;;;;4986698;28;20066;-79
2022/01/30 00:31:08;;;;;;;6.93;1.83;;;5.60;99.90;;;;;;4969647;28;20393;-80
2022/01/30 00:33:41;;;;;;;5.00;1.60;;;5.70;99.90;;;;;;4963702;28;20086;-81
2022/01/30 00:36:11;;;;;;;;;;;5.70;99.90;;;;;;4977708;28;20070;-81
2022/01/30 00:38:45;;;;;;;8.53;1.33;;;5.70;99.90;;;;;;4989051;28;19945;-80
2022/01/30 00:41:14;;;;;;;7.73;2.40;;;5.80;99.90;;;;;;4988766;28;20058;-79
2022/01/30 00:43:43;;;;;;;13.53;2.03;;;5.80;99.90;;;;;;4988061;28;20477;-79
2022/01/30 00:46:11;;;;;;;6.53;1.43;;;5.90;99.90;;;;;;4991755;28;20065;-79
2022/01/30 00:48:39;;;;;;;8.60;2.00;;;6.00;99.90;;;;;;4988822;28;20066;-81
2022/01/30 00:51:07;;;;;;;9.03;2.27;;;5.90;99.90;;;;;;4985901;28;20061;-79
2022/01/30 00:53:37;;;;;;;13.83;2.10;;;5.90;99.90;;;;;;4988049;28;20058;-82
2022/01/30 00:56:16;;;;;;;5.20;1.53;;;6.00;99.90;;;;;;4986256;28;20080;-81
2022/01/30 00:58:50;;;;;;;8.67;2.40;;;6.00;99.90;;;;;;4919653;29;20425;-80
2022/01/30 01:01:23;;;;;;;10.47;1.53;;;6.00;99.90;;;;;;4921304;29;20086;-80
2022/01/30 01:03:50;;;;;;;9.70;2.63;;;6.00;99.90;;;;;;4953689;29;20062;-81
2022/01/30 01:06:17;;;;;;;5.77;1.00;;;6.10;99.90;;;;;;4938014;29;20062;-80
2022/01/30 01:08:55;;;;;;;4.30;1.50;;;6.10;99.90;;;;;;4959750;28;20130;-80
2022/01/30 01:11:57;;;;;;;2.97;0.90;;;6.10;99.90;;;;;;4973028;28;20053;-80
2022/01/30 01:25:28;;;;;;;7.03;1.80;;;6.10;99.90;;;;;;4959227;28;20097;-79
2022/01/30 01:27:56;;;;;;;15.07;2.00;;;6.10;99.90;;;;;;4940862;28;20136;-79
2022/01/30 01:30:25;;;;;;;8.40;1.73;;;6.10;99.90;;;;;;4940601;28;20478;-80
2022/01/30 01:32:51;;;;;;;4.93;1.67;;;6.10;99.90;;;;;;4944315;28;20966;-81
2022/01/30 01:35:21;;;;;;;17.77;9.73;;;6.10;99.90;;;;;;4976750;28;20378;-83
2022/01/30 01:40:29;;;;;;;11.85;2.10;;;6.20;99.90;;;;;;4952280;28;20133;-78
2022/01/30 01:43:01;;;;;;;8.53;1.60;;;6.30;99.90;;;;;;4956309;28;20061;-80
2022/01/30 01:45:35;;;;;;;6.60;1.63;;;6.30;99.90;;;;;;4963869;28;20055;-81
2022/01/30 01:48:09;;;;;;;4.67;2.00;;;6.30;99.90;;;;;;4976172;28;20097;-81
2022/01/30 01:50:38;;;;;;;11.00;1.77;;;6.30;99.90;;;;;;4974415;28;20058;-79
2022/01/30 01:53:07;;;;;;;9.63;1.60;;;6.30;99.90;;;;;;4975277;28;20055;-81
2022/01/30 01:55:35;;;;;;;5.10;0.87;;;6.30;99.90;;;;;;4974211;28;20086;-79
2022/01/30 01:58:06;;;;;;;5.27;2.07;;;6.40;99.90;;;;;;4975800;28;20393;-80
2022/01/30 02:03:19;;;;;;;5.43;1.80;;;6.30;99.90;;;;;;4961351;28;20629;-78
2022/01/30 02:05:56;;;;;;;7.40;1.00;;;6.40;99.90;;;;;;4956037;28;20134;-80
2022/01/30 02:08:34;;;;;;;6.77;1.47;;;6.30;99.90;;;;;;4944276;28;20054;-80
2022/01/30 02:11:27;;;;;;;4.00;1.57;;;6.30;99.90;;;;;;4972174;28;20042;-80
2022/01/30 02:27:57;;;;;;;6.57;1.90;;;5.80;99.90;;;;;;4972341;28;20487;-80
2022/01/30 02:30:35;;;;;;;4.90;1.27;;;5.80;99.90;;;;;;4980885;28;20047;-79
2022/01/30 02:33:04;;;;;;;16.30;2.97;;;5.60;99.90;;;;;;4971694;28;20047;-79
2022/01/30 02:35:31;;;;;;;3.70;1.33;;;5.40;99.90;;;;;;4939283;28;20055;-78
2022/01/30 02:38:06;;;;;;;1.87;1.37;;;5.30;99.90;;;;;;4971910;28;20062;-78
2022/01/30 02:40:39;;;;;;;5.53;1.27;;;5.30;99.90;;;;;;4951802;28;20466;-80
2022/01/30 02:43:09;;;;;;;8.13;2.23;;;5.40;99.90;;;;;;4970047;28;20051;-81
2022/01/30 02:45:47;;;;;;;8.87;1.37;;;5.40;99.90;;;;;;4973549;28;20519;-81
2022/01/30 02:48:18;;;;;;;4.53;1.00;;;5.60;99.90;;;;;;4972811;28;20046;-80
2022/01/30 02:50:55;;;;;;;8.07;1.50;;;5.80;99.90;;;;;;4972953;28;20126;-80
2022/01/30 02:53:31;;;;;;;13.40;1.93;;;5.90;99.90;;;;;;4956012;28;20141;-81
2022/01/30 02:56:00;;;;;;;4.60;2.50;;;5.90;99.90;;;;;;4941038;28;20046;-80
2022/01/30 02:58:35;;;;;;;8.30;1.70;;;6.00;99.90;;;;;;4956267;28;20110;-82
2022/01/30 03:01:14;;;;;;;6.57;2.70;;;6.10;99.90;;;;;;4955732;28;20047;-80
2022/01/30 03:03:44;;;;;;;10.10;2.93;;;6.10;99.90;;;;;;4957352;28;20150;-79
2022/01/30 03:06:10;;;;;;;5.40;1.17;;;6.20;99.90;;;;;;4943972;28;20058;-79
2022/01/30 03:08:46;;;;;;;5.33;1.50;;;6.10;99.90;;;;;;4975989;28;20121;-79
2022/01/30 03:11:16;;;;;;;10.97;1.97;;;6.10;99.90;;;;;;4976261;28;20509;-81
2022/01/30 03:13:43;;;;;;;19.57;7.30;;;6.10;99.90;;;;;;4976468;28;20055;-79
2022/01/30 03:16:15;;;;;;;9.17;3.47;;;6.10;99.90;;;;;;4976562;28;20090;-79
2022/01/30 03:18:43;;;;;;;9.82;2.40;;;6.10;99.90;;;;;;4939598;29;20058;-80
2022/01/30 03:21:10;;;;;;;12.03;2.03;;;6.20;99.90;;;;;;4921698;29;20051;-79
2022/01/30 03:23:52;;;;;;;6.63;1.60;;;6.10;99.90;;;;;;4955672;29;20444;-78
2022/01/30 03:26:20;;;;;;;3.83;1.10;;;6.20;99.90;;;;;;4955375;29;20063;-79
2022/01/30 03:28:49;;;;;;;12.80;2.97;;;6.10;99.90;;;;;;4955840;29;20078;-77
2022/01/30 03:31:22;;;;;;;6.50;1.50;;;6.10;99.90;;;;;;4955851;29;20047;-81
2022/01/30 03:33:56;;;;;;;3.93;1.13;;;6.20;99.90;;;;;;4957241;28;20053;-80
2022/01/30 03:36:25;;;;;;;8.63;2.40;;;6.10;99.90;;;;;;4955498;28;20197;-81
2022/01/30 03:38:55;;;;;;;7.20;1.80;;;6.10;99.90;;;;;;4958884;28;20059;-81
2022/01/30 03:41:24;;;;;;;3.63;0.97;;;6.10;99.90;;;;;;4977540;28;20057;-81
2022/01/30 03:43:50;;;;;;;4.53;0.90;;;6.10;99.90;;;;;;4975381;28;20051;-81
2022/01/30 03:46:18;;;;;;;4.33;1.47;;;6.00;99.90;;;;;;4998145;28;20067;-80
2022/01/30 03:48:49;;;;;;;8.77;2.13;;;5.90;99.90;;;;;;4998024;28;20030;-80
2022/01/30 03:51:17;;;;;;;11.73;1.23;;;5.90;99.90;;;;;;4979636;28;20078;-81
2022/01/30 03:53:52;;;;;;;3.70;1.97;;;5.90;99.90;;;;;;4999436;28;20031;-82
2022/01/30 03:56:24;;;;;;;13.67;2.27;;;5.90;99.90;;;;;;4997355;28;20045;-81
2022/01/30 03:58:56;;;;;;;8.97;2.07;;;5.90;99.90;;;;;;4978746;28;20115;-80
2022/01/30 04:01:26;;;;;;;10.93;1.98;;;5.90;99.90;;;;;;4994637;28;20058;-78
2022/01/30 04:03:57;;;;;;;7.53;1.20;;;5.90;99.90;;;;;;4991709;28;20167;-79
2022/01/30 04:06:27;;;;;;;13.88;2.78;;;5.90;99.90;;;;;;4988716;28;20055;-80
2022/01/30 04:08:55;;;;;;;14.73;2.57;;;5.80;99.90;;;;;;4975121;28;20059;-79
2022/01/30 04:11:44;;;;;;;3.63;1.30;;;5.80;99.90;;;;;;4972347;28;20051;-78
2022/01/30 04:14:15;;;;;;;8.00;1.30;;;5.80;99.90;;;;;;4973377;28;20113;-80
2022/01/30 04:16:47;;;;;;;5.70;1.70;;;5.80;99.90;;;;;;4972917;28;20125;-80
2022/01/30 04:19:16;;;;;;;;;;;5.80;99.90;;;;;;4955199;28;20065;-79
2022/01/30 04:21:44;;;;;;;0.83;0.63;;;5.80;99.90;;;;;;4973929;28;19930;-79
2022/01/30 04:27:20;;;;;;;6.37;1.33;;;5.80;99.90;;;;;;4972863;28;20094;-80
2022/01/30 04:29:47;;;;;;;5.47;1.13;;;5.60;99.90;;;;;;4956767;28;20053;-79
2022/01/30 04:32:15;;;;;;;7.50;2.13;;;5.60;99.90;;;;;;4956019;28;20066;-79
2022/01/30 04:34:51;;;;;;;6.27;1.20;;;5.50;99.90;;;;;;4955137;28;20051;-79
2022/01/30 04:37:27;;;;;;;6.00;0.83;;;5.40;99.90;;;;;;4972239;28;20078;-80
2022/01/30 04:40:35;;;;;;;3.57;1.30;;;5.40;99.90;;;;;;4973176;28;20113;-79
2022/01/30 04:57:00;;;;;;;8.67;1.93;;;5.40;99.90;;;;;;4949697;28;20057;-81
2022/01/30 05:02:39;;;;;;;7.83;2.00;;;5.50;99.90;;;;;;4971106;28;20050;-79
2022/01/30 05:05:35;;;;;;;9.60;1.43;;;5.50;99.90;;;;;;4972216;28;20106;-80
2022/01/30 05:08:04;;;;;;;7.00;1.58;;;5.50;99.90;;;;;;4959937;28;20046;-80
2022/01/30 05:10:31;;;;;;;8.10;1.53;;;5.60;99.90;;;;;;4938383;28;20065;-80
2022/01/30 05:13:02;;;;;;;13.10;1.50;;;5.60;99.90;;;;;;4956924;28;20070;-79
2022/01/30 05:15:33;;;;;;;6.75;1.27;;;5.60;99.90;;;;;;4971839;28;20475;-81
2022/01/30 05:18:03;;;;;;;4.25;1.08;;;5.60;99.90;;;;;;4954851;28;20051;-80
2022/01/30 05:20:34;;;;;;;4.40;1.80;;;5.50;99.90;;;;;;4972437;28;20436;-81
2022/01/30 05:23:01;;;;;;;9.47;1.77;;;5.50;99.90;;;;;;4992965;28;20133;-79
2022/01/30 05:25:31;;;;;;;2.23;1.37;;;5.50;99.90;;;;;;4976828;28;20416;-80
2022/01/30 05:27:59;;;;;;;5.53;2.13;;;5.40;99.90;;;;;;4970193;28;20047;-79
2022/01/30 05:30:27;;;;;;;4.00;1.80;;;5.40;99.90;;;;;;4955288;28;20126;-80
2022/01/30 05:33:00;;;;;;;8.53;2.57;;;5.40;99.90;;;;;;4955271;28;20059;-79
2022/01/30 05:35:36;;;;;;;8.60;1.70;;;5.40;99.90;;;;;;4953931;28;20493;-80
2022/01/30 05:38:05;;;;;;;7.67;1.67;;;5.40;99.90;;;;;;4955709;28;20051;-79
2022/01/30 05:40:38;;;;;;;12.33;2.40;;;5.40;99.90;;;;;;4971913;28;20576;-78
2022/01/30 05:43:05;;;;;;;5.77;2.20;;;5.40;99.90;;;;;;4956371;28;20150;-80
2022/01/30 05:45:38;;;;;;;5.90;1.47;;;5.40;99.90;;;;;;4955450;28;20070;-79
2022/01/30 05:48:29;;;;;;;7.47;1.33;;;5.40;99.90;;;;;;4973707;28;20062;-80
2022/01/30 05:54:03;;;;;;;10.18;1.83;;;5.40;99.90;;;;;;4972274;28;20477;-80
2022/01/30 05:56:45;;;;;;;6.43;1.80;;;5.40;99.90;;;;;;4970087;28;20055;-81
2022/01/30 05:59:17;;;;;;;3.27;1.53;;;5.40;99.90;;;;;;4955744;28;20047;-80
2022/01/30 06:01:50;;;;;;;12.20;2.10;;;5.30;99.90;;;;;;4971106;28;20051;-80
2022/01/30 06:04:24;;;;;;;7.03;0.63;;;5.30;99.90;;;;;;4920971;28;20047;-79
2022/01/30 06:06:55;;;;;;;7.33;1.80;;;5.20;99.90;;;;;;4968810;28;20141;-79
2022/01/30 06:09:32;;;;;;;5.72;2.17;;;5.20;99.90;;;;;;4970319;28;20141;-80
2022/01/30 06:12:01;;;;;;;6.73;1.50;;;5.20;99.90;;;;;;4967902;28;20047;-81
2022/01/30 06:14:32;;;;;;;5.70;2.13;;;5.20;99.90;;;;;;4990246;28;20051;-81
2022/01/30 06:17:04;;;;;;;3.42;1.42;;;5.30;99.90;;;;;;4987426;28;20097;-81
2022/01/30 06:19:34;;;;;;;5.60;1.48;;;5.30;99.90;;;;;;4986347;28;20068;-80
2022/01/30 06:22:02;;;;;;;7.27;1.27;;;5.30;99.90;;;;;;4983598;28;20054;-79
2022/01/30 06:24:32;;;;;;;9.97;2.67;;;5.30;99.90;;;;;;4939245;28;20097;-81
2022/01/30 06:27:01;;;;;;;5.33;1.13;;;5.30;99.90;;;;;;4972657;28;20086;-81
2022/01/30 06:29:29;;;;;;;4.47;1.20;;;5.40;99.90;;;;;;4972240;28;20090;-80
2022/01/30 06:32:02;;;;;;;11.50;2.10;;;5.40;99.90;;;;;;4958453;28;20055;-80
2022/01/30 06:34:37;;;;;;;6.17;1.50;;;5.40;99.90;;;;;;4961795;28;20994;-80
2022/01/30 06:37:09;;;;;;;7.90;1.77;;;5.40;99.90;;;;;;4972758;28;20105;-81
2022/01/30 06:39:38;;;;;;;;;;;5.50;99.90;;;;;;4938358;28;20055;-80
2022/01/30 06:42:08;;;;;;;7.07;1.60;;;5.60;99.90;;;;;;4939300;28;19978;-80
2022/01/30 06:44:38;;;;;;;4.23;1.17;;;5.60;99.90;;;;;;4955033;28;20054;-79
2022/01/30 06:49:53;;;;;;;11.90;2.67;;;5.60;99.90;;;;;;4972055;28;20401;-79
2022/01/30 06:52:19;;;;;;;13.93;2.50;;;5.60;99.90;;;;;;4970921;28;20055;-80
2022/01/30 06:54:48;;;;;;;4.43;2.73;;;5.60;99.90;;;;;;4969325;28;20409;-80
2022/01/30 06:57:30;;;;;;;3.37;1.90;;;5.70;99.90;;;;;;4937992;28;20137;-80
2022/01/30 06:59:58;;;;;;;;;;;5.70;99.90;;;;;;4953985;28;20056;-79
2022/01/30 07:02:25;;;;;;;8.07;1.47;;;5.70;99.90;;;;;;4972136;28;19922;-78
2022/01/30 07:04:59;;;;;;;4.20;0.87;;;5.70;99.90;;;;;;4971979;28;20077;-79
2022/01/30 07:10:21;;;;;;;5.53;1.43;;;5.70;99.90;;;;;;4911637;29;20095;-80
2022/01/30 07:12:49;;;;;;;10.90;2.13;;;5.80;99.90;;;;;;4901403;29;20049;-78
2022/01/30 07:15:18;;;;;;;7.97;2.10;;;5.90;99.90;;;;;;4951232;28;20457;-79
2022/01/30 07:17:44;;;;;;;7.83;1.90;;;5.90;99.90;;;;;;4971976;28;20105;-78
2022/01/30 07:20:28;;;;;;;6.27;2.57;;;5.90;99.90;;;;;;4954332;28;20063;-77
2022/01/30 07:23:02;;;;;;;6.13;1.27;;;5.90;99.90;;;;;;4968322;28;20581;-79
2022/01/30 07:25:31;;;;;;;11.60;1.77;;;6.00;99.90;;;;;;4937376;28;20055;-79
2022/01/30 07:28:00;;;;;;;15.97;2.27;;;6.00;99.90;;;;;;4954406;28;20051;-79
2022/01/30 07:30:28;;;;;;;9.80;2.27;;;6.00;99.90;;;;;;4952365;28;20082;-80
2022/01/30 07:32:57;;;;;;;10.27;2.83;;;6.00;99.90;;;;;;4939379;28;20440;-80
2022/01/30 07:35:42;;;;;;;9.30;1.63;;;6.00;99.90;;;;;;4973336;28;20050;-80
2022/01/30 07:38:10;;;;;;;7.57;1.63;;;6.10;99.90;;;;;;4953216;28;20125;-80
2022/01/30 07:40:38;;;;;;;8.90;1.60;;;6.10;99.90;;;;;;4973300;28;20121;-78
2022/01/30 07:43:06;;;;;;;5.03;1.40;;;6.10;99.90;;;;;;4924008;28;20489;-78
2022/01/30 07:45:33;;;;;;;4.90;1.37;;;6.10;99.90;;;;;;4955981;28;20481;-79
2022/01/30 07:51:06;;;;;;;3.97;1.97;;;6.00;99.90;;;;;;4971868;28;20097;-79
2022/01/30 07:53:35;;;;;;;10.37;2.20;;;6.00;99.90;;;;;;4957789;28;20417;-79
2022/01/30 07:56:02;;;;;;;6.77;1.97;;;5.80;99.90;;;;;;4974259;28;20086;-79
2022/01/30 07:58:29;;;;;;;8.70;2.07;;;5.70;99.90;;;;;;4957853;28;20046;-78
2022/01/30 08:03:46;;;;;;;8.40;1.80;;;5.70;99.90;;;;;;4959672;28;20070;-80
2022/01/30 08:06:17;;;;;;;11.60;2.10;;;5.70;99.90;;;;;;4975856;28;20496;-79
2022/01/30 08:08:54;;;;;;;11.67;2.03;;;5.80;99.90;;;;;;4974273;28;20133;-78
2022/01/30 08:11:21;;;;;;;5.77;1.47;;;5.80;99.90;;;;;;4979977;28;20039;-79
2022/01/30 08:13:53;;;;;;;7.30;2.70;;;5.90;99.90;;;;;;4976686;28;20110;-78
2022/01/30 08:16:29;;;;;;;9.03;2.20;;;5.90;99.90;;;;;;4982543;28;20047;-79
2022/01/30 08:19:03;;;;;;;5.60;1.43;;;6.00;99.90;;;;;;4992182;28;20055;-79
2022/01/30 08:21:39;;;;;;;3.07;1.07;;;6.00;99.90;;;;;;4991277;28;20090;-79
2022/01/30 08:24:10;;;;;;;6.90;2.60;;;6.00;99.90;;;;;;4975133;28;20103;-80
2022/01/30 08:26:39;;;;;;;7.57;2.22;;;6.10;99.90;;;;;;4997814;28;20046;-80
2022/01/30 08:29:10;;;;;;;9.40;2.13;;;6.10;99.90;;;;;;4979700;28;20051;-82
2022/01/30 08:31:37;;;;;;;10.25;1.95;;;6.10;99.90;;;;;;4994743;28;20078;-79
2022/01/30 08:34:03;;;;;;;8.30;1.43;;;6.00;99.90;;;;;;4981922;28;20102;-80
2022/01/30 08:39:35;;;;;;;13.17;2.80;;;6.00;99.90;;;;;;4919849;29;20117;-80
2022/01/30 08:42:13;;;;;;;13.27;2.00;;;6.00;99.90;;;;;;4950565;28;20114;-79
2022/01/30 08:47:25;;;;;;;16.57;2.03;;;6.00;99.90;;;;;;4976222;28;20097;-80
2022/01/30 08:49:53;;;;;;;52.63;26.57;;;6.00;99.90;;;;;;4964500;28;20071;-80
2022/01/30 08:52:26;;;;;;;13.97;7.03;;;6.10;99.90;;;;;;4966527;28;20047;-80
2022/01/30 08:55:00;;;;;;;9.70;1.90;;;6.10;99.90;;;;;;4945236;28;20058;-81
2022/01/30 08:57:36;;;;;;;4.53;1.30;;;6.10;99.90;;;;;;4979071;28;20058;-82
2022/01/30 09:00:11;;;;;;;9.20;1.53;;;6.10;99.90;;;;;;4975941;28;20055;-81
2022/01/30 09:05:26;;;;;;;5.10;1.63;;;6.20;99.90;;;;;;4976643;28;20122;-81
2022/01/30 09:08:00;;;;;;;6.53;1.90;;;6.40;99.90;;;;;;4978014;28;20054;-80
2022/01/30 09:10:31;;;;;;;13.87;2.20;;;6.50;99.90;;;;;;4972476;28;20062;-81
2022/01/30 09:12:59;;;;;;;;;;;6.50;99.90;;;;;;4976986;28;20047;-81
2022/01/30 09:15:26;;;;;;;9.20;2.80;;;6.60;99.90;;;;;;4977546;28;19929;-79
2022/01/30 09:17:56;;;;;;;8.47;2.23;;;6.60;99.90;;;;;;4961221;28;20162;-81
2022/01/30 09:20:24;;;;;;;16.93;2.67;;;6.70;99.90;;;;;;4978786;28;20497;-81
2022/01/30 09:26:15;;;;;;;14.67;2.10;;;6.80;99.90;;;;;;4960841;29;20107;-89
2022/01/30 09:28:47;;;;;;;22.93;9.77;;;6.80;99.90;;;;;;4980887;28;20115;-88
2022/01/30 09:31:18;;;;;;;13.07;4.93;;;6.90;99.90;;;;;;4988396;28;20071;-88
2022/01/30 09:33:47;;;;;;;7.03;2.23;;;6.90;99.90;;;;;;4973006;28;20111;-92
2022/01/30 09:41:39;;;;;;;9.93;2.43;;;7.00;99.90;;;;;;4984348;28;20051;-81
2022/01/30 09:44:24;;;;;;;5.83;1.83;;;6.90;99.90;;;;;;4964432;28;20054;-83
2022/01/30 09:46:52;;;;;;;5.10;1.27;;;6.80;99.90;;;;;;4975562;28;20077;-83
2022/01/30 09:49:35;;;;;;;11.90;2.90;;;6.80;99.90;;;;;;4977151;28;20047;-84
2022/01/30 09:54:57;;;;;;;4.83;1.40;;;6.90;99.90;;;;;;4983693;28;20106;-79
2022/01/30 09:57:25;;;;;;;3.63;2.03;;;6.90;99.90;;;;;;4969450;28;20077;-80
2022/01/30 09:59:52;;;;;;;5.50;1.70;;;6.80;99.90;;;;;;4956568;28;20059;-78
2022/01/30 10:02:25;;;;;;;8.43;2.20;;;6.80;99.90;;;;;;4967545;28;20063;-82
2022/01/30 10:04:52;;;;;;;8.33;1.30;;;6.70;99.90;;;;;;4943034;28;20101;-81
2022/01/30 10:07:21;;;;;;;7.23;1.70;;;6.70;99.90;;;;;;4970065;28;20054;-80
2022/01/30 10:09:50;;;;;;;7.67;1.53;;;6.80;99.90;;;;;;4973629;28;20065;-82
2022/01/30 10:12:19;;;;;;;4.67;1.40;;;6.80;99.90;;;;;;4965872;28;20070;-82
2022/01/30 10:14:53;;;;;;;6.43;2.23;;;6.80;99.90;;;;;;4964658;28;20478;-82
2022/01/30 10:17:38;;;;;;;15.03;3.40;;;6.80;99.90;;;;;;4966217;28;20042;-81
2022/01/30 10:20:08;;;;;;;9.33;2.53;;;6.80;99.90;;;;;;4965419;28;20071;-82
2022/01/30 10:22:36;;;;;;;7.80;1.73;;;6.80;99.90;;;;;;4967379;28;20066;-82
2022/01/30 10:25:02;;;;;;;7.67;2.23;;;6.80;99.90;;;;;;4972801;28;20054;-81
2022/01/30 10:27:30;;;;;;;12.63;2.50;;;6.90;99.90;;;;;;4970087;28;20038;-81
2022/01/30 10:29:58;;;;;;;12.50;3.60;;;6.90;99.90;;;;;;4963855;28;20065;-80
2022/01/30 10:32:26;;;;;;;4.80;1.47;;;7.00;99.90;;;;;;4963144;28;20429;-82
2022/01/30 10:35:01;;;;;;;11.57;2.67;;;7.00;99.90;;;;;;4963718;28;20082;-82
2022/01/30 10:37:27;;;;;;;10.93;1.93;;;7.10;99.90;;;;;;4959987;28;20058;-80
2022/01/30 10:40:06;;;;;;;8.00;1.33;;;7.10;99.90;;;;;;4970016;28;20057;-81
2022/01/30 10:42:38;;;;;;;11.77;3.07;;;7.00;99.90;;;;;;4948792;28;20051;-82
2022/01/30 10:45:08;;;;;;;16.80;2.50;;;7.00;99.90;;;;;;4964561;28;20043;-81
2022/01/30 10:47:36;;;;;;;13.23;1.80;;;7.00;99.90;;;;;;4965456;28;20047;-81
2022/01/30 10:50:07;;;;;;;9.40;1.90;;;6.90;99.90;;;;;;4971992;28;20047;-81
2022/01/30 10:52:33;;;;;;;12.70;2.28;;;6.90;99.90;;;;;;4972558;28;20046;-80
2022/01/30 10:55:04;;;;;;;11.10;1.97;;;6.90;99.90;;;;;;4973933;28;20047;-78
2022/01/30 10:57:48;;;;;;;6.30;1.33;;;6.90;99.90;;;;;;4974285;28;20055;-80
2022/01/30 11:00:17;;;;;;;13.67;2.27;;;6.90;99.90;;;;;;4960241;28;20051;-84
2022/01/30 11:02:46;;;;;;;14.83;2.07;;;6.90;99.90;;;;;;4975386;28;20102;-86
2022/01/30 11:05:16;;;;;;;11.47;2.77;;;6.90;99.90;;;;;;4977772;28;20051;-83
2022/01/30 11:10:32;;;;;;;9.20;2.60;;;6.80;99.90;;;;;;4979567;28;20058;-87
2022/01/30 11:13:08;;;;;;;13.07;2.70;;;6.80;99.90;;;;;;4958489;28;20051;-82
2022/01/30 11:15:43;;;;;;;7.70;2.37;;;6.80;99.90;;;;;;4978170;28;20413;-87
2022/01/30 11:18:12;;;;;;;13.70;3.03;;;6.80;99.90;;;;;;4978754;28;20050;-83
2022/01/30 11:20:44;;;;;;;12.77;2.63;;;6.80;99.90;;;;;;4980518;28;20039;-82
2022/01/30 11:23:14;;;;;;;8.60;2.53;;;7.00;99.90;;;;;;4981059;28;20132;-86
2022/01/30 11:25:44;;;;;;;12.00;2.00;;;6.90;99.90;;;;;;4986039;28;20059;-84
2022/01/30 11:28:12;;;;;;;15.87;2.10;;;7.00;99.90;;;;;;4986082;28;20058;-85
2022/01/30 11:30:42;;;;;;;14.07;2.77;;;6.90;99.90;;;;;;4985327;28;20057;-85
2022/01/30 11:33:08;;;;;;;13.93;3.60;;;7.00;99.90;;;;;;4970761;28;20489;-80
2022/01/30 11:35:37;;;;;;;8.93;1.83;;;7.00;99.90;;;;;;4978014;28;20046;-86
2022/01/30 11:44:11;;;;;;;14.10;5.07;;;7.40;99.90;;;;;;4977024;28;19925;-81
2022/01/30 11:46:38;;;;;;;12.07;2.33;;;8.00;99.90;;;;;;4967055;28;20055;-81
2022/01/30 11:49:23;;;;;;;15.73;2.90;;;8.10;99.90;;;;;;4980914;28;20051;-82
2022/01/30 11:51:49;;;;;;;16.10;3.03;;;8.10;99.90;;;;;;4958377;28;20074;-81
2022/01/30 11:54:34;;;;;;;14.05;3.97;;;8.30;99.90;;;;;;4976876;28;20047;-79
2022/01/30 11:57:01;;;;;;;8.70;2.17;;;8.80;99.90;;;;;;4972883;28;20051;-79
2022/01/30 11:59:39;;;;;;;11.02;2.40;;;8.60;99.90;;;;;;4975933;28;20059;-81
2022/01/30 12:02:22;;;;;;;13.88;2.45;;;8.30;99.90;;;;;;4976861;28;20395;-84
2022/01/30 12:04:54;;;;;;;15.70;2.35;;;8.20;99.90;;;;;;4976940;28;20070;-83
2022/01/30 12:07:33;;;;;;;18.67;3.22;;;7.90;99.90;;;;;;4977108;28;20050;-82
2022/01/30 12:10:32;;;;;;;14.35;2.90;;;7.60;99.90;;;;;;4976052;28;20109;-83
2022/01/30 12:12:59;;;;;;;10.80;2.30;;;7.50;99.90;;;;;;4974950;28;20108;-78
2022/01/30 12:15:35;;;;;;;5.90;1.92;;;7.40;99.90;;;;;;4976454;28;20047;-80
2022/01/30 12:18:03;;;;;;;7.13;2.60;;;7.40;99.90;;;;;;4974932;28;20058;-81
2022/01/30 12:20:31;;;;;;;14.37;2.77;;;7.30;99.90;;;;;;4975783;28;20062;-82
2022/01/30 12:22:58;;;;;;;7.73;2.63;;;7.30;99.90;;;;;;4978220;28;20070;-81
2022/01/30 12:28:17;;;;;;;10.63;4.70;;;7.30;99.90;;;;;;4976127;28;20109;-80
2022/01/30 12:30:50;;;;;;;11.07;3.80;;;7.30;99.90;;;;;;4972962;28;20445;-80
2022/01/30 12:33:44;;;;;;;8.77;3.43;;;7.40;99.90;;;;;;4960998;28;20043;-79
2022/01/30 12:36:13;;;;;;;8.75;3.00;;;7.40;99.90;;;;;;4975676;28;20078;-80
2022/01/30 12:38:39;;;;;;;9.80;3.77;;;7.40;99.90;;;;;;4967195;28;20050;-79
2022/01/30 12:41:14;;;;;;;22.23;3.13;;;7.40;99.90;;;;;;4967677;28;20504;-81
2022/01/30 12:43:41;;;;;;;13.70;3.17;;;7.40;99.90;;;;;;4977006;28;20051;-81
2022/01/30 12:46:08;;;;;;;14.25;3.20;;;7.30;99.90;;;;;;4976168;28;20066;-80
2022/01/30 12:48:35;;;;;;;9.57;3.03;;;7.40;99.90;;;;;;4976716;28;20047;-82
2022/01/30 12:51:06;;;;;;;10.90;3.13;;;7.60;99.90;;;;;;4975782;28;20054;-81
2022/01/30 12:53:35;;;;;;;15.48;3.53;;;7.70;99.90;;;;;;4976121;28;20054;-82
2022/01/30 12:56:01;;;;;;;8.18;2.92;;;8.00;99.90;;;;;;4975964;28;20137;-82
2022/01/30 12:58:34;;;;;;;12.32;2.00;;;8.30;99.90;;;;;;4978350;28;20051;-82
2022/01/30 13:01:08;;;;;;;11.63;3.22;;;9.00;99.90;;;;;;4976798;28;20085;-84
2022/01/30 13:03:36;;;;;;;13.15;2.50;;;8.70;99.90;;;;;;4959077;29;20194;-82
2022/01/30 13:06:03;;;;;;;16.15;3.05;;;9.00;99.90;;;;;;4957728;28;20111;-82
2022/01/30 13:08:52;;;;;;;11.63;3.25;;;9.40;99.90;;;;;;4977704;28;20058;-82
2022/01/30 13:11:20;;;;;;;12.52;2.58;;;8.90;99.90;;;;;;4975403;28;20105;-80
2022/01/30 13:13:55;;;;;;;16.98;2.92;;;8.70;99.90;;;;;;4975396;28;20065;-78
2022/01/30 13:16:23;;;;;;;10.70;2.88;;;9.00;99.90;;;;;;4973263;28;20519;-78
2022/01/30 13:18:50;;;;;;;10.18;2.92;;;8.50;99.90;;;;;;4974222;28;20457;-81
2022/01/30 13:21:25;;;;;;;6.78;2.92;;;8.30;99.90;;;;;;4974680;28;20106;-80
2022/01/30 13:23:52;;;;;;;17.15;3.08;;;8.40;99.90;;;;;;4978291;28;20049;-78
2022/01/30 13:26:35;;;;;;;19.77;3.13;;;8.50;99.90;;;;;;4980985;28;20054;-80
2022/01/30 13:29:02;;;;;;;13.15;3.05;;;8.30;99.90;;;;;;4968696;28;20438;-79
2022/01/30 13:31:31;;;;;;;18.70;3.38;;;8.30;99.90;;;;;;4974103;28;20666;-80
2022/01/30 13:34:19;;;;;;;14.10;2.72;;;8.80;99.90;;;;;;4975269;28;20473;-81
2022/01/30 13:36:54;;;;;;;18.60;2.78;;;8.60;99.90;;;;;;4974817;28;20055;-79
2022/01/30 13:39:27;;;;;;;13.13;2.53;;;8.40;99.70;;;;;;4975030;28;20075;-81
2022/01/30 13:42:05;;;;;;;14.00;3.17;;;8.30;99.90;;;;;;4972497;28;20066;-80
2022/01/30 13:44:50;;;;;;;32.13;4.28;;;8.50;99.90;;;;;;4973751;28;20408;-81
2022/01/30 13:47:20;;;;;;;17.77;10.55;;;8.60;99.90;;;;;;4972727;28;20070;-80
2022/01/30 13:49:49;;;;;;;41.67;20.63;;;8.70;99.90;;;;;;4973989;28;20572;-87
2022/01/30 13:52:18;;;;;;;14.77;5.22;;;9.10;99.90;;;;;;4956735;28;20533;-80
2022/01/30 13:54:58;;;;;;;12.13;2.85;;;8.90;99.20;;;;;;4953335;29;20451;-80
2022/01/30 13:57:30;;;;;;;17.63;3.15;;;8.80;98.80;;;;;;4949630;29;20051;-81
2022/01/30 14:00:04;;;;;;;17.38;3.35;;;8.90;99.40;;;;;;4954886;28;20063;-82
2022/01/30 14:02:30;;;;;;;14.32;2.92;;;8.80;99.50;;;;;;4953756;29;20106;-80
2022/01/30 14:05:23;;;;;;;9.55;3.60;;;8.80;98.90;;;;;;4954708;28;20050;-79
2022/01/30 14:07:50;;;;;;;18.50;4.50;;;8.50;98.90;;;;;;4934828;29;20470;-79
2022/01/30 14:10:17;;;;;;;12.32;3.80;;;8.50;99.00;;;;;;4945646;28;20059;-80
2022/01/30 14:12:43;;;;;;;10.20;3.13;;;8.50;99.10;;;;;;4947977;29;20576;-79
2022/01/30 14:15:11;;;;;;;13.15;2.75;;;8.20;99.30;;;;;;4951607;28;20474;-81
2022/01/30 14:17:41;;;;;;;17.10;2.63;;;8.10;99.90;;;;;;4953647;28;20082;-79
2022/01/30 14:20:11;;;;;;;9.35;2.08;;;7.90;99.90;;;;;;4952412;28;20474;-79
2022/01/30 14:22:37;;;;;;;13.38;2.90;;;7.80;99.90;;;;;;4949860;29;20458;-80
2022/01/30 14:25:06;;;;;;;13.88;2.70;;;7.60;99.90;;;;;;4952866;29;20489;-81
2022/01/30 14:27:35;;;;;;;14.40;2.90;;;7.60;99.90;;;;;;4953492;29;20053;-79
2022/01/30 14:30:05;;;;;;;27.70;3.67;;;7.40;99.90;;;;;;4952973;29;20059;-79
2022/01/30 14:32:33;;;;;;;9.67;2.93;;;7.40;99.90;;;;;;4953494;29;20136;-81
2022/01/30 14:35:01;;;;;;;18.47;4.17;;;7.20;99.90;;;;;;4954353;29;20110;-81
2022/01/30 14:37:27;;;;;;;13.32;2.47;;;7.10;99.90;;;;;;4953170;29;20055;-81
2022/01/30 14:39:55;;;;;;;7.40;2.37;;;7.20;99.90;;;;;;4953881;28;20154;-82
2022/01/30 14:42:22;;;;;;;12.73;2.53;;;7.00;99.90;;;;;;4953959;29;20070;-82
2022/01/30 14:44:49;;;;;;;15.90;2.83;;;7.00;99.90;;;;;;4953497;28;20063;-80
2022/01/30 14:47:15;;;;;;;11.30;2.67;;;7.00;99.90;;;;;;4959620;28;20069;-79
2022/01/30 14:49:41;;;;;;;10.10;2.90;;;7.00;99.90;;;;;;4952891;28;20078;-79
2022/01/30 14:52:08;;;;;;;17.83;3.00;;;6.90;99.90;;;;;;4952601;29;20059;-80
2022/01/30 14:54:35;;;;;;;12.13;2.80;;;6.90;99.90;;;;;;4951265;29;20379;-80
2022/01/30 14:57:01;;;;;;;11.53;2.60;;;6.90;99.90;;;;;;4950348;29;20056;-80
2022/01/30 14:59:28;;;;;;;11.27;3.40;;;6.80;99.90;;;;;;4955129;28;20055;-81
2022/01/30 15:01:55;;;;;;;16.50;4.17;;;6.80;99.90;;;;;;4957502;29;20122;-81
2022/01/30 15:04:21;;;;;;;9.27;2.77;;;6.80;99.90;;;;;;4956103;29;20135;-82
2022/01/30 15:06:47;;;;;;;12.23;4.57;;;6.70;99.90;;;;;;4956859;28;20063;-82
2022/01/30 15:09:13;;;;;;;18.57;3.17;;;6.70;99.90;;;;;;4957821;29;20059;-81
2022/01/30 15:11:39;;;;;;;11.43;3.13;;;6.70;99.90;;;;;;4957528;29;20051;-82